Sns 217 — FAC7489 — position and weather

sailwx.info

Track history (hours):
 
Tides and Currents Weather Stations Pressure Air Temp Water Temp Dewpoint Dewpoint Depression Visibility Wind Speed Wind Dir Waves Ship Positions

Sns 217

Last reported at 2017-Oct-07 09:18 UTC. Time now 2017-Oct-20 12:26 UTC.
Position N 46°26' W 001°41'.
Warning: this ship's position is 13 days out of date.

Length 12 m; draft 1.3 m.

Type: SAR. MMSI: 227342260.

Date/timePositionNaut miles runAvg speedWind from/ knotsBaromVisibWave heightAir tempDewpointWater temp
2017-Oct-07 09:18N 46°26' W 001°41'1 5.2
2017-Oct-07 09:00N 46°27' W 001°43'4 8.7
2017-Oct-07 08:30N 46°30' W 001°48'0 0.2
2017-Oct-07 08:00N 46°30' W 001°48'611.6
2017-Oct-07 07:30N 46°26' W 001°41'  
2017-Sep-29 16:14N 46°26' W 001°41'2 6.8
2017-Sep-29 16:00N 46°27' W 001°43'3 6.4
2017-Sep-29 15:29N 46°28' W 001°47'510.0
2017-Sep-29 15:00N 46°26' W 001°41'0 0.0
2017-Sep-27 14:07N 46°26' W 001°41'1 6.2
2017-Sep-27 14:00N 46°26' W 001°42'0 0.9
2017-Sep-27 13:31N 46°26' W 001°41'  
Track history (hours):
 
Tides and Currents Weather Stations Pressure Air Temp Water Temp Dewpoint Dewpoint Depression Visibility Wind Speed Wind Dir Waves Ship Positions

Sns 217

Last reported at 2017-Oct-07 09:18 UTC. Time now 2017-Oct-20 12:26 UTC.
Position N 46°26' W 001°41'.
Warning: this ship's position is 13 days out of date.

Length 12 m; draft 1.3 m.

Type: SAR. MMSI: 227342260.

Date/timePositionNaut miles runAvg speedWind from/ knotsBaromVisibWave heightAir tempDewpointWater temp
2017-Oct-07 09:18N 46°26' W 001°41'1 5.2
2017-Oct-07 09:00N 46°27' W 001°43'4 8.7
2017-Oct-07 08:30N 46°30' W 001°48'0 0.2
2017-Oct-07 08:00N 46°30' W 001°48'611.6
2017-Oct-07 07:30N 46°26' W 001°41'  
2017-Sep-29 16:14N 46°26' W 001°41'2 6.8
2017-Sep-29 16:00N 46°27' W 001°43'3 6.4
2017-Sep-29 15:29N 46°28' W 001°47'510.0
2017-Sep-29 15:00N 46°26' W 001°41'0 0.0
2017-Sep-27 14:07N 46°26' W 001°41'1 6.2
2017-Sep-27 14:00N 46°26' W 001°42'0 0.9
2017-Sep-27 13:31N 46°26' W 001°41'  

Dump ship's entire track history